sensor_id;sensor_type;location;lat;lon;timestamp;temperature;humidity
10722;DHT22;5412;59.450;18.124;2023-01-19T00:01:21;3.20;99.90
10722;DHT22;5412;59.450;18.124;2023-01-19T00:03:47;3.20;99.90
10722;DHT22;5412;59.450;18.124;2023-01-19T00:06:13;3.10;99.90
10722;DHT22;5412;59.450;18.124;2023-01-19T00:08:38;3.20;99.90
10722;DHT22;5412;59.450;18.124;2023-01-19T00:11:05;3.20;99.90
10722;DHT22;5412;59.450;18.124;2023-01-19T00:13:31;3.20;99.90
10722;DHT22;5412;59.450;18.124;2023-01-19T00:15:57;3.20;99.90
10722;DHT22;5412;59.450;18.124;2023-01-19T00:18:23;3.20;99.90
10722;DHT22;5412;59.450;18.124;2023-01-19T00:20:50;3.20;99.90
10722;DHT22;5412;59.450;18.124;2023-01-19T00:23:15;3.20;99.90
10722;DHT22;5412;59.450;18.124;2023-01-19T00:25:41;3.20;99.90
10722;DHT22;5412;59.450;18.124;2023-01-19T00:28:12;3.10;99.90
10722;DHT22;5412;59.450;18.124;2023-01-19T00:30:39;3.00;99.90
10722;DHT22;5412;59.450;18.124;2023-01-19T00:33:04;3.00;99.90
10722;DHT22;5412;59.450;18.124;2023-01-19T00:35:30;3.00;99.90
10722;DHT22;5412;59.450;18.124;2023-01-19T00:37:59;3.00;99.90
10722;DHT22;5412;59.450;18.124;2023-01-19T00:40:25;3.00;99.90
10722;DHT22;5412;59.450;18.124;2023-01-19T00:42:51;2.90;99.90
10722;DHT22;5412;59.450;18.124;2023-01-19T00:45:19;3.00;99.90
10722;DHT22;5412;59.450;18.124;2023-01-19T00:47:47;3.00;99.90
10722;DHT22;5412;59.450;18.124;2023-01-19T00:50:14;3.00;99.90
10722;DHT22;5412;59.450;18.124;2023-01-19T00:52:42;3.00;99.90
10722;DHT22;5412;59.450;18.124;2023-01-19T00:55:10;3.00;99.90
10722;DHT22;5412;59.450;18.124;2023-01-19T00:57:37;3.10;99.90
10722;DHT22;5412;59.450;18.124;2023-01-19T01:00:05;3.10;99.90
10722;DHT22;5412;59.450;18.124;2023-01-19T01:02:33;3.00;99.90
10722;DHT22;5412;59.450;18.124;2023-01-19T01:04:59;3.00;99.90
10722;DHT22;5412;59.450;18.124;2023-01-19T01:07:27;2.90;99.90
10722;DHT22;5412;59.450;18.124;2023-01-19T01:09:54;3.00;99.90
10722;DHT22;5412;59.450;18.124;2023-01-19T01:12:21;3.00;99.90
10722;DHT22;5412;59.450;18.124;2023-01-19T01:14:47;3.00;99.90
10722;DHT22;5412;59.450;18.124;2023-01-19T01:17:13;2.90;99.90
10722;DHT22;5412;59.450;18.124;2023-01-19T01:19:42;2.90;99.90
10722;DHT22;5412;59.450;18.124;2023-01-19T01:22:09;2.90;99.90
10722;DHT22;5412;59.450;18.124;2023-01-19T01:24:35;2.90;99.90
10722;DHT22;5412;59.450;18.124;2023-01-19T01:27:00;2.80;99.90
10722;DHT22;5412;59.450;18.124;2023-01-19T01:29:26;2.70;99.90
10722;DHT22;5412;59.450;18.124;2023-01-19T01:31:52;2.50;99.90
10722;DHT22;5412;59.450;18.124;2023-01-19T01:34:18;2.30;99.90
10722;DHT22;5412;59.450;18.124;2023-01-19T01:36:44;2.20;99.90
10722;DHT22;5412;59.450;18.124;2023-01-19T01:39:09;2.30;99.90
10722;DHT22;5412;59.450;18.124;2023-01-19T01:41:35;2.30;99.90
10722;DHT22;5412;59.450;18.124;2023-01-19T01:44:01;2.30;99.90
10722;DHT22;5412;59.450;18.124;2023-01-19T01:46:30;2.20;99.90
10722;DHT22;5412;59.450;18.124;2023-01-19T01:49:22;2.30;99.90
10722;DHT22;5412;59.450;18.124;2023-01-19T01:51:51;2.20;99.90
10722;DHT22;5412;59.450;18.124;2023-01-19T01:54:29;2.20;99.90
10722;DHT22;5412;59.450;18.124;2023-01-19T01:56:59;2.20;99.90
10722;DHT22;5412;59.450;18.124;2023-01-19T01:59:39;2.20;99.90
10722;DHT22;5412;59.450;18.124;2023-01-19T02:02:13;2.10;99.90
10722;DHT22;5412;59.450;18.124;2023-01-19T02:05:03;2.10;99.90
10722;DHT22;5412;59.450;18.124;2023-01-19T02:08:01;2.10;99.90
10722;DHT22;5412;59.450;18.124;2023-01-19T02:10:46;1.80;99.90
10722;DHT22;5412;59.450;18.124;2023-01-19T02:13:33;1.90;99.90
10722;DHT22;5412;59.450;18.124;2023-01-19T02:16:02;2.00;99.90
10722;DHT22;5412;59.450;18.124;2023-01-19T02:18:31;2.10;99.90
10722;DHT22;5412;59.450;18.124;2023-01-19T02:21:20;2.10;99.90
10722;DHT22;5412;59.450;18.124;2023-01-19T02:23:52;2.20;99.90
10722;DHT22;5412;59.450;18.124;2023-01-19T02:26:21;2.10;99.90
10722;DHT22;5412;59.450;18.124;2023-01-19T02:28:59;2.00;99.90
10722;DHT22;5412;59.450;18.124;2023-01-19T02:31:27;2.00;99.90
10722;DHT22;5412;59.450;18.124;2023-01-19T02:33:54;2.10;99.90
10722;DHT22;5412;59.450;18.124;2023-01-19T02:36:23;2.20;99.90
10722;DHT22;5412;59.450;18.124;2023-01-19T02:38:52;2.30;99.90
10722;DHT22;5412;59.450;18.124;2023-01-19T02:41:23;2.40;99.90
10722;DHT22;5412;59.450;18.124;2023-01-19T02:43:51;2.50;99.90
10722;DHT22;5412;59.450;18.124;2023-01-19T02:46:18;2.50;99.90
10722;DHT22;5412;59.450;18.124;2023-01-19T02:48:44;2.50;99.90
10722;DHT22;5412;59.450;18.124;2023-01-19T02:51:30;2.50;99.90
10722;DHT22;5412;59.450;18.124;2023-01-19T02:54:16;2.40;99.90
10722;DHT22;5412;59.450;18.124;2023-01-19T02:57:08;2.30;99.90
10722;DHT22;5412;59.450;18.124;2023-01-19T03:00:09;2.30;99.90
10722;DHT22;5412;59.450;18.124;2023-01-19T03:05:20;2.40;99.90
10722;DHT22;5412;59.450;18.124;2023-01-19T03:08:05;2.50;99.90
10722;DHT22;5412;59.450;18.124;2023-01-19T03:13:15;2.50;99.90
10722;DHT22;5412;59.450;18.124;2023-01-19T03:15:56;2.40;99.90
10722;DHT22;5412;59.450;18.124;2023-01-19T03:18:25;2.50;99.90
10722;DHT22;5412;59.450;18.124;2023-01-19T03:20:55;2.40;99.90
10722;DHT22;5412;59.450;18.124;2023-01-19T03:23:25;2.30;99.90
10722;DHT22;5412;59.450;18.124;2023-01-19T03:25:53;1.90;99.90
10722;DHT22;5412;59.450;18.124;2023-01-19T03:28:22;2.40;99.90
10722;DHT22;5412;59.450;18.124;2023-01-19T03:30:58;2.30;99.90
10722;DHT22;5412;59.450;18.124;2023-01-19T03:33:30;2.30;99.90
10722;DHT22;5412;59.450;18.124;2023-01-19T03:36:01;2.30;99.90
10722;DHT22;5412;59.450;18.124;2023-01-19T03:38:34;2.30;99.90
10722;DHT22;5412;59.450;18.124;2023-01-19T03:41:04;2.30;99.90
10722;DHT22;5412;59.450;18.124;2023-01-19T03:43:31;2.50;99.90
10722;DHT22;5412;59.450;18.124;2023-01-19T03:45:59;2.60;99.90
10722;DHT22;5412;59.450;18.124;2023-01-19T03:48:25;2.50;99.90
10722;DHT22;5412;59.450;18.124;2023-01-19T03:50:51;2.50;99.90
10722;DHT22;5412;59.450;18.124;2023-01-19T03:53:19;2.50;99.90
10722;DHT22;5412;59.450;18.124;2023-01-19T03:55:46;2.70;99.90
10722;DHT22;5412;59.450;18.124;2023-01-19T03:58:13;2.60;99.90
10722;DHT22;5412;59.450;18.124;2023-01-19T04:00:39;2.60;99.90
10722;DHT22;5412;59.450;18.124;2023-01-19T04:03:09;2.60;99.90
10722;DHT22;5412;59.450;18.124;2023-01-19T04:05:37;2.70;99.90
10722;DHT22;5412;59.450;18.124;2023-01-19T04:08:04;2.70;99.90
10722;DHT22;5412;59.450;18.124;2023-01-19T04:10:30;2.70;99.90
10722;DHT22;5412;59.450;18.124;2023-01-19T04:13:00;2.70;99.90
10722;DHT22;5412;59.450;18.124;2023-01-19T04:15:26;2.70;99.90
10722;DHT22;5412;59.450;18.124;2023-01-19T04:17:53;2.70;99.90
10722;DHT22;5412;59.450;18.124;2023-01-19T04:20:19;2.70;99.90
10722;DHT22;5412;59.450;18.124;2023-01-19T04:22:46;2.70;99.90
10722;DHT22;5412;59.450;18.124;2023-01-19T04:25:12;2.80;99.90
10722;DHT22;5412;59.450;18.124;2023-01-19T04:27:38;2.80;99.90
10722;DHT22;5412;59.450;18.124;2023-01-19T04:30:04;2.80;99.90
10722;DHT22;5412;59.450;18.124;2023-01-19T04:32:31;2.80;99.90
10722;DHT22;5412;59.450;18.124;2023-01-19T04:34:57;2.80;99.90
10722;DHT22;5412;59.450;18.124;2023-01-19T04:37:23;2.80;99.90
10722;DHT22;5412;59.450;18.124;2023-01-19T04:39:48;2.70;99.90
10722;DHT22;5412;59.450;18.124;2023-01-19T04:42:14;2.70;99.90
10722;DHT22;5412;59.450;18.124;2023-01-19T04:44:41;2.80;99.90
10722;DHT22;5412;59.450;18.124;2023-01-19T04:47:07;2.70;99.90
10722;DHT22;5412;59.450;18.124;2023-01-19T04:49:33;2.70;99.90
10722;DHT22;5412;59.450;18.124;2023-01-19T04:52:03;2.70;99.90
10722;DHT22;5412;59.450;18.124;2023-01-19T04:54:29;2.80;99.90
10722;DHT22;5412;59.450;18.124;2023-01-19T04:56:55;2.70;99.90
10722;DHT22;5412;59.450;18.124;2023-01-19T04:59:21;2.60;99.90
10722;DHT22;5412;59.450;18.124;2023-01-19T05:01:46;2.70;99.90
10722;DHT22;5412;59.450;18.124;2023-01-19T05:04:12;2.70;99.90
10722;DHT22;5412;59.450;18.124;2023-01-19T05:06:38;2.60;99.90
10722;DHT22;5412;59.450;18.124;2023-01-19T05:09:04;2.60;99.90
10722;DHT22;5412;59.450;18.124;2023-01-19T05:11:32;2.40;99.90
10722;DHT22;5412;59.450;18.124;2023-01-19T05:13:58;2.40;99.90
10722;DHT22;5412;59.450;18.124;2023-01-19T05:16:23;2.30;99.90
10722;DHT22;5412;59.450;18.124;2023-01-19T05:18:49;2.30;99.90
10722;DHT22;5412;59.450;18.124;2023-01-19T05:21:15;2.40;99.90
10722;DHT22;5412;59.450;18.124;2023-01-19T05:23:41;2.40;99.90
10722;DHT22;5412;59.450;18.124;2023-01-19T05:26:06;2.40;99.90
10722;DHT22;5412;59.450;18.124;2023-01-19T05:28:32;2.30;99.90
10722;DHT22;5412;59.450;18.124;2023-01-19T05:30:58;2.10;99.90
10722;DHT22;5412;59.450;18.124;2023-01-19T05:33:24;2.10;99.90
10722;DHT22;5412;59.450;18.124;2023-01-19T05:35:51;2.00;99.90
10722;DHT22;5412;59.450;18.124;2023-01-19T05:38:18;2.00;99.90
10722;DHT22;5412;59.450;18.124;2023-01-19T05:40:44;2.00;99.90
10722;DHT22;5412;59.450;18.124;2023-01-19T05:43:12;1.90;99.90
10722;DHT22;5412;59.450;18.124;2023-01-19T05:45:38;1.90;99.90
10722;DHT22;5412;59.450;18.124;2023-01-19T05:48:07;1.80;99.90
10722;DHT22;5412;59.450;18.124;2023-01-19T05:50:33;1.90;99.90
10722;DHT22;5412;59.450;18.124;2023-01-19T05:53:00;1.80;99.90
10722;DHT22;5412;59.450;18.124;2023-01-19T05:55:26;1.90;99.90
10722;DHT22;5412;59.450;18.124;2023-01-19T05:57:52;1.80;99.90
10722;DHT22;5412;59.450;18.124;2023-01-19T06:00:18;1.70;99.90
10722;DHT22;5412;59.450;18.124;2023-01-19T06:02:44;1.60;99.90
10722;DHT22;5412;59.450;18.124;2023-01-19T06:05:13;1.80;99.90
10722;DHT22;5412;59.450;18.124;2023-01-19T06:07:40;1.70;99.90
10722;DHT22;5412;59.450;18.124;2023-01-19T06:10:06;1.70;99.90
10722;DHT22;5412;59.450;18.124;2023-01-19T06:12:32;1.60;99.90
10722;DHT22;5412;59.450;18.124;2023-01-19T06:14:58;1.70;99.90
10722;DHT22;5412;59.450;18.124;2023-01-19T06:17:23;1.70;99.90
10722;DHT22;5412;59.450;18.124;2023-01-19T06:19:49;1.80;99.90
10722;DHT22;5412;59.450;18.124;2023-01-19T06:22:15;1.80;99.90
10722;DHT22;5412;59.450;18.124;2023-01-19T06:24:41;1.90;99.90
10722;DHT22;5412;59.450;18.124;2023-01-19T06:27:06;1.90;99.90
10722;DHT22;5412;59.450;18.124;2023-01-19T06:29:32;1.80;99.90
10722;DHT22;5412;59.450;18.124;2023-01-19T06:31:58;1.80;99.90
10722;DHT22;5412;59.450;18.124;2023-01-19T06:34:24;1.80;99.90
10722;DHT22;5412;59.450;18.124;2023-01-19T06:36:54;1.80;99.90
10722;DHT22;5412;59.450;18.124;2023-01-19T06:39:20;1.80;99.90
10722;DHT22;5412;59.450;18.124;2023-01-19T06:41:46;1.80;99.90
10722;DHT22;5412;59.450;18.124;2023-01-19T06:44:12;1.80;99.90
10722;DHT22;5412;59.450;18.124;2023-01-19T06:46:37;1.80;99.90
10722;DHT22;5412;59.450;18.124;2023-01-19T06:49:03;1.80;99.90
10722;DHT22;5412;59.450;18.124;2023-01-19T06:51:29;1.90;99.90
10722;DHT22;5412;59.450;18.124;2023-01-19T06:53:56;1.80;99.90
10722;DHT22;5412;59.450;18.124;2023-01-19T06:56:22;1.80;99.90
10722;DHT22;5412;59.450;18.124;2023-01-19T06:58:48;1.70;99.90
10722;DHT22;5412;59.450;18.124;2023-01-19T07:01:15;1.70;99.90
10722;DHT22;5412;59.450;18.124;2023-01-19T07:03:41;1.80;99.90
10722;DHT22;5412;59.450;18.124;2023-01-19T07:06:06;1.80;99.90
10722;DHT22;5412;59.450;18.124;2023-01-19T07:08:33;1.80;99.90
10722;DHT22;5412;59.450;18.124;2023-01-19T07:11:04;1.70;99.90
10722;DHT22;5412;59.450;18.124;2023-01-19T07:13:31;1.70;99.90
10722;DHT22;5412;59.450;18.124;2023-01-19T07:15:58;1.80;99.90
10722;DHT22;5412;59.450;18.124;2023-01-19T07:18:24;1.80;99.90
10722;DHT22;5412;59.450;18.124;2023-01-19T07:20:50;1.70;99.90
10722;DHT22;5412;59.450;18.124;2023-01-19T07:23:16;1.60;99.90
10722;DHT22;5412;59.450;18.124;2023-01-19T07:25:45;1.70;99.90
10722;DHT22;5412;59.450;18.124;2023-01-19T07:28:11;1.60;99.90
10722;DHT22;5412;59.450;18.124;2023-01-19T07:30:43;1.60;99.90
10722;DHT22;5412;59.450;18.124;2023-01-19T07:33:11;1.60;99.90
10722;DHT22;5412;59.450;18.124;2023-01-19T07:35:37;1.50;99.90
10722;DHT22;5412;59.450;18.124;2023-01-19T07:38:03;1.40;99.90
10722;DHT22;5412;59.450;18.124;2023-01-19T07:40:29;1.50;99.90
10722;DHT22;5412;59.450;18.124;2023-01-19T07:42:54;1.40;99.90
10722;DHT22;5412;59.450;18.124;2023-01-19T07:45:21;1.60;99.90
10722;DHT22;5412;59.450;18.124;2023-01-19T07:47:48;1.60;99.90
10722;DHT22;5412;59.450;18.124;2023-01-19T07:50:15;1.50;99.90
10722;DHT22;5412;59.450;18.124;2023-01-19T07:52:41;1.60;99.90
10722;DHT22;5412;59.450;18.124;2023-01-19T07:55:07;1.50;99.90
10722;DHT22;5412;59.450;18.124;2023-01-19T07:57:34;1.70;99.90
10722;DHT22;5412;59.450;18.124;2023-01-19T08:00:00;1.70;99.90
10722;DHT22;5412;59.450;18.124;2023-01-19T08:02:28;1.70;99.90
10722;DHT22;5412;59.450;18.124;2023-01-19T08:04:54;1.60;99.90
10722;DHT22;5412;59.450;18.124;2023-01-19T08:07:20;1.60;99.90
10722;DHT22;5412;59.450;18.124;2023-01-19T08:09:46;1.60;99.90
10722;DHT22;5412;59.450;18.124;2023-01-19T08:12:11;1.70;99.90
10722;DHT22;5412;59.450;18.124;2023-01-19T08:14:37;1.50;99.90
10722;DHT22;5412;59.450;18.124;2023-01-19T08:17:03;1.40;99.90
10722;DHT22;5412;59.450;18.124;2023-01-19T08:19:29;1.30;99.90
10722;DHT22;5412;59.450;18.124;2023-01-19T08:21:54;1.20;99.90
10722;DHT22;5412;59.450;18.124;2023-01-19T08:24:22;1.20;99.90
10722;DHT22;5412;59.450;18.124;2023-01-19T08:26:50;1.30;99.90
10722;DHT22;5412;59.450;18.124;2023-01-19T08:29:22;1.40;99.90
10722;DHT22;5412;59.450;18.124;2023-01-19T08:31:48;1.50;99.90
10722;DHT22;5412;59.450;18.124;2023-01-19T08:34:14;1.60;99.90
10722;DHT22;5412;59.450;18.124;2023-01-19T08:36:40;1.60;99.90
10722;DHT22;5412;59.450;18.124;2023-01-19T08:39:05;1.70;99.90
10722;DHT22;5412;59.450;18.124;2023-01-19T08:41:31;1.70;99.90
10722;DHT22;5412;59.450;18.124;2023-01-19T08:43:57;1.80;99.90
10722;DHT22;5412;59.450;18.124;2023-01-19T08:46:23;1.90;99.90
10722;DHT22;5412;59.450;18.124;2023-01-19T08:48:49;1.80;99.90
10722;DHT22;5412;59.450;18.124;2023-01-19T08:51:15;1.70;99.90
10722;DHT22;5412;59.450;18.124;2023-01-19T08:53:42;1.70;99.90
10722;DHT22;5412;59.450;18.124;2023-01-19T08:56:09;1.60;99.90
10722;DHT22;5412;59.450;18.124;2023-01-19T08:58:42;1.90;99.90
10722;DHT22;5412;59.450;18.124;2023-01-19T09:01:10;2.00;99.90
10722;DHT22;5412;59.450;18.124;2023-01-19T09:03:39;2.10;99.90
10722;DHT22;5412;59.450;18.124;2023-01-19T09:06:06;2.30;99.90
10722;DHT22;5412;59.450;18.124;2023-01-19T09:08:32;2.40;99.90
10722;DHT22;5412;59.450;18.124;2023-01-19T09:10:58;2.40;99.90
10722;DHT22;5412;59.450;18.124;2023-01-19T09:13:24;2.50;99.90
10722;DHT22;5412;59.450;18.124;2023-01-19T09:15:49;2.40;99.90
10722;DHT22;5412;59.450;18.124;2023-01-19T09:18:20;2.50;99.90
10722;DHT22;5412;59.450;18.124;2023-01-19T09:20:48;2.40;99.90
10722;DHT22;5412;59.450;18.124;2023-01-19T09:23:17;2.20;99.90
10722;DHT22;5412;59.450;18.124;2023-01-19T09:25:44;2.30;99.90
10722;DHT22;5412;59.450;18.124;2023-01-19T09:28:12;2.40;99.90
10722;DHT22;5412;59.450;18.124;2023-01-19T09:30:40;2.40;99.90
10722;DHT22;5412;59.450;18.124;2023-01-19T09:33:08;2.50;99.90
10722;DHT22;5412;59.450;18.124;2023-01-19T09:35:36;2.40;99.90
10722;DHT22;5412;59.450;18.124;2023-01-19T09:38:02;2.50;99.90
10722;DHT22;5412;59.450;18.124;2023-01-19T09:40:29;2.50;99.90
10722;DHT22;5412;59.450;18.124;2023-01-19T09:42:59;2.60;99.90
10722;DHT22;5412;59.450;18.124;2023-01-19T09:47:56;2.70;99.90
10722;DHT22;5412;59.450;18.124;2023-01-19T09:50:30;2.90;99.90
10722;DHT22;5412;59.450;18.124;2023-01-19T09:53:04;3.00;99.90
10722;DHT22;5412;59.450;18.124;2023-01-19T09:55:39;2.90;99.90
10722;DHT22;5412;59.450;18.124;2023-01-19T09:58:16;2.90;99.90
10722;DHT22;5412;59.450;18.124;2023-01-19T10:00:49;2.90;99.90
10722;DHT22;5412;59.450;18.124;2023-01-19T10:03:17;2.90;99.90
10722;DHT22;5412;59.450;18.124;2023-01-19T10:05:48;2.70;99.90
10722;DHT22;5412;59.450;18.124;2023-01-19T10:08:28;2.60;99.90
10722;DHT22;5412;59.450;18.124;2023-01-19T10:10:58;2.70;99.90
10722;DHT22;5412;59.450;18.124;2023-01-19T10:13:46;2.80;99.90
10722;DHT22;5412;59.450;18.124;2023-01-19T10:18:53;2.80;99.90
10722;DHT22;5412;59.450;18.124;2023-01-19T10:21:28;3.00;99.90
10722;DHT22;5412;59.450;18.124;2023-01-19T10:24:31;2.70;99.90
10722;DHT22;5412;59.450;18.124;2023-01-19T10:27:00;2.80;99.90
10722;DHT22;5412;59.450;18.124;2023-01-19T10:29:32;2.90;99.90
10722;DHT22;5412;59.450;18.124;2023-01-19T10:32:37;3.10;99.90
10722;DHT22;5412;59.450;18.124;2023-01-19T10:35:14;3.20;99.90
10722;DHT22;5412;59.450;18.124;2023-01-19T10:37:46;3.30;99.90
10722;DHT22;5412;59.450;18.124;2023-01-19T10:42:40;3.20;99.90
10722;DHT22;5412;59.450;18.124;2023-01-19T10:47:44;2.90;99.90
10722;DHT22;5412;59.450;18.124;2023-01-19T10:50:26;3.20;99.90
10722;DHT22;5412;59.450;18.124;2023-01-19T10:52:55;3.20;99.90
10722;DHT22;5412;59.450;18.124;2023-01-19T10:55:39;3.20;99.90
10722;DHT22;5412;59.450;18.124;2023-01-19T10:58:24;3.10;99.90
10722;DHT22;5412;59.450;18.124;2023-01-19T11:00:50;2.90;99.90
10722;DHT22;5412;59.450;18.124;2023-01-19T11:05:49;3.10;99.90
10722;DHT22;5412;59.450;18.124;2023-01-19T11:08:28;3.10;99.90
10722;DHT22;5412;59.450;18.124;2023-01-19T11:10:58;3.20;99.90
10722;DHT22;5412;59.450;18.124;2023-01-19T11:13:26;3.30;99.90
10722;DHT22;5412;59.450;18.124;2023-01-19T11:15:58;3.50;99.90
10722;DHT22;5412;59.450;18.124;2023-01-19T11:18:29;3.50;99.90
10722;DHT22;5412;59.450;18.124;2023-01-19T11:20:58;3.50;99.90
10722;DHT22;5412;59.450;18.124;2023-01-19T11:23:47;3.50;99.90
10722;DHT22;5412;59.450;18.124;2023-01-19T11:26:38;3.50;99.90
10722;DHT22;5412;59.450;18.124;2023-01-19T11:29:10;3.40;99.90
10722;DHT22;5412;59.450;18.124;2023-01-19T11:31:39;3.30;99.90
10722;DHT22;5412;59.450;18.124;2023-01-19T11:39:28;2.90;99.90
10722;DHT22;5412;59.450;18.124;2023-01-19T11:41:59;3.10;99.90
10722;DHT22;5412;59.450;18.124;2023-01-19T11:44:31;3.20;99.90
10722;DHT22;5412;59.450;18.124;2023-01-19T11:47:37;3.30;99.90
10722;DHT22;5412;59.450;18.124;2023-01-19T11:50:41;3.20;99.90
10722;DHT22;5412;59.450;18.124;2023-01-19T11:53:21;3.20;99.90
10722;DHT22;5412;59.450;18.124;2023-01-19T11:56:35;3.20;99.90
10722;DHT22;5412;59.450;18.124;2023-01-19T11:58:44;3.40;99.90
10722;DHT22;5412;59.450;18.124;2023-01-19T12:01:17;3.40;99.90
10722;DHT22;5412;59.450;18.124;2023-01-19T12:06:39;3.40;99.90
10722;DHT22;5412;59.450;18.124;2023-01-19T12:11:40;3.40;99.90
10722;DHT22;5412;59.450;18.124;2023-01-19T12:14:23;3.40;99.90
10722;DHT22;5412;59.450;18.124;2023-01-19T12:16:54;3.40;99.90
10722;DHT22;5412;59.450;18.124;2023-01-19T12:19:28;3.30;99.90
10722;DHT22;5412;59.450;18.124;2023-01-19T12:21:59;3.40;99.90
10722;DHT22;5412;59.450;18.124;2023-01-19T12:24:43;3.40;99.90
10722;DHT22;5412;59.450;18.124;2023-01-19T12:27:41;3.40;99.90
10722;DHT22;5412;59.450;18.124;2023-01-19T12:30:24;3.50;99.90
10722;DHT22;5412;59.450;18.124;2023-01-19T12:32:50;3.60;99.90
10722;DHT22;5412;59.450;18.124;2023-01-19T12:41:27;3.70;99.90
10722;DHT22;5412;59.450;18.124;2023-01-19T12:47:19;3.80;99.90
10722;DHT22;5412;59.450;18.124;2023-01-19T12:49:56;3.80;99.90
10722;DHT22;5412;59.450;18.124;2023-01-19T12:52:29;3.70;99.90
10722;DHT22;5412;59.450;18.124;2023-01-19T12:57:46;3.70;99.90
10722;DHT22;5412;59.450;18.124;2023-01-19T13:13:28;3.70;99.90
10722;DHT22;5412;59.450;18.124;2023-01-19T13:15:56;3.70;99.90
10722;DHT22;5412;59.450;18.124;2023-01-19T13:18:26;3.80;99.90
10722;DHT22;5412;59.450;18.124;2023-01-19T13:20:59;3.70;99.90
10722;DHT22;5412;59.450;18.124;2023-01-19T13:23:27;3.80;99.90
10722;DHT22;5412;59.450;18.124;2023-01-19T13:26:06;3.90;99.90
10722;DHT22;5412;59.450;18.124;2023-01-19T13:28:40;4.20;99.90
10722;DHT22;5412;59.450;18.124;2023-01-19T13:31:07;4.30;99.90
10722;DHT22;5412;59.450;18.124;2023-01-19T13:33:57;4.10;99.90
10722;DHT22;5412;59.450;18.124;2023-01-19T13:39:00;4.10;99.90
10722;DHT22;5412;59.450;18.124;2023-01-19T13:41:30;4.00;99.90
10722;DHT22;5412;59.450;18.124;2023-01-19T13:44:07;3.90;99.90
10722;DHT22;5412;59.450;18.124;2023-01-19T13:46:35;3.70;99.90
10722;DHT22;5412;59.450;18.124;2023-01-19T13:54:35;3.60;99.90
10722;DHT22;5412;59.450;18.124;2023-01-19T13:57:01;3.60;99.90
10722;DHT22;5412;59.450;18.124;2023-01-19T13:59:27;3.60;99.90
10722;DHT22;5412;59.450;18.124;2023-01-19T14:01:53;3.50;99.90
10722;DHT22;5412;59.450;18.124;2023-01-19T14:04:30;3.30;99.90
10722;DHT22;5412;59.450;18.124;2023-01-19T14:07:03;3.30;99.90
10722;DHT22;5412;59.450;18.124;2023-01-19T14:09:30;3.40;99.90
10722;DHT22;5412;59.450;18.124;2023-01-19T14:12:15;3.20;99.90
10722;DHT22;5412;59.450;18.124;2023-01-19T14:14:44;3.20;99.90
10722;DHT22;5412;59.450;18.124;2023-01-19T14:17:28;3.20;99.90
10722;DHT22;5412;59.450;18.124;2023-01-19T14:19:58;3.30;99.90
10722;DHT22;5412;59.450;18.124;2023-01-19T14:31:23;3.10;99.90
10722;DHT22;5412;59.450;18.124;2023-01-19T14:33:55;3.00;99.90
10722;DHT22;5412;59.450;18.124;2023-01-19T14:36:25;3.10;99.90
10722;DHT22;5412;59.450;18.124;2023-01-19T14:38:52;3.00;99.90
10722;DHT22;5412;59.450;18.124;2023-01-19T14:41:36;2.90;99.90
10722;DHT22;5412;59.450;18.124;2023-01-19T14:44:08;3.00;99.90
10722;DHT22;5412;59.450;18.124;2023-01-19T14:46:34;2.90;99.90
10722;DHT22;5412;59.450;18.124;2023-01-19T14:49:02;2.80;99.90
10722;DHT22;5412;59.450;18.124;2023-01-19T14:51:29;2.90;99.90
10722;DHT22;5412;59.450;18.124;2023-01-19T14:53:57;2.90;99.90
10722;DHT22;5412;59.450;18.124;2023-01-19T14:56:31;2.90;99.90
10722;DHT22;5412;59.450;18.124;2023-01-19T14:58:58;2.90;99.90
10722;DHT22;5412;59.450;18.124;2023-01-19T15:01:26;3.00;99.90
10722;DHT22;5412;59.450;18.124;2023-01-19T15:03:56;3.10;99.90
10722;DHT22;5412;59.450;18.124;2023-01-19T15:06:23;3.10;99.90
10722;DHT22;5412;59.450;18.124;2023-01-19T15:08:50;3.10;99.90
10722;DHT22;5412;59.450;18.124;2023-01-19T15:13:54;3.10;99.90
10722;DHT22;5412;59.450;18.124;2023-01-19T15:16:21;3.10;99.90
10722;DHT22;5412;59.450;18.124;2023-01-19T15:18:48;3.00;99.90
10722;DHT22;5412;59.450;18.124;2023-01-19T15:21:15;2.90;99.90
10722;DHT22;5412;59.450;18.124;2023-01-19T15:23:44;3.00;99.90
10722;DHT22;5412;59.450;18.124;2023-01-19T15:26:14;2.80;99.90
10722;DHT22;5412;59.450;18.124;2023-01-19T15:28:41;2.80;99.90
10722;DHT22;5412;59.450;18.124;2023-01-19T15:31:12;2.80;99.90
10722;DHT22;5412;59.450;18.124;2023-01-19T15:33:39;2.80;99.90
10722;DHT22;5412;59.450;18.124;2023-01-19T15:36:09;2.70;99.90
10722;DHT22;5412;59.450;18.124;2023-01-19T15:38:36;2.70;99.90
10722;DHT22;5412;59.450;18.124;2023-01-19T15:41:01;2.80;99.90
10722;DHT22;5412;59.450;18.124;2023-01-19T15:43:27;2.80;99.90
10722;DHT22;5412;59.450;18.124;2023-01-19T15:46:02;2.80;99.90
10722;DHT22;5412;59.450;18.124;2023-01-19T15:48:30;2.80;99.90
10722;DHT22;5412;59.450;18.124;2023-01-19T15:50:56;2.90;99.90
10722;DHT22;5412;59.450;18.124;2023-01-19T15:53:22;2.90;99.90
10722;DHT22;5412;59.450;18.124;2023-01-19T15:55:50;2.90;99.90
10722;DHT22;5412;59.450;18.124;2023-01-19T15:58:17;2.90;99.90
10722;DHT22;5412;59.450;18.124;2023-01-19T16:00:51;2.90;99.90
10722;DHT22;5412;59.450;18.124;2023-01-19T16:03:17;2.90;99.90
10722;DHT22;5412;59.450;18.124;2023-01-19T16:05:43;2.80;99.90
10722;DHT22;5412;59.450;18.124;2023-01-19T16:08:09;2.80;99.90
10722;DHT22;5412;59.450;18.124;2023-01-19T16:10:35;2.80;99.90
10722;DHT22;5412;59.450;18.124;2023-01-19T16:13:02;2.70;99.90
10722;DHT22;5412;59.450;18.124;2023-01-19T16:15:28;2.80;99.90
10722;DHT22;5412;59.450;18.124;2023-01-19T16:17:54;2.80;99.90
10722;DHT22;5412;59.450;18.124;2023-01-19T16:20:20;2.80;99.90
10722;DHT22;5412;59.450;18.124;2023-01-19T16:22:45;2.80;99.90
10722;DHT22;5412;59.450;18.124;2023-01-19T16:25:11;2.70;99.90
10722;DHT22;5412;59.450;18.124;2023-01-19T16:27:37;2.60;99.90
10722;DHT22;5412;59.450;18.124;2023-01-19T16:30:03;2.60;99.90
10722;DHT22;5412;59.450;18.124;2023-01-19T16:32:31;2.70;99.90
10722;DHT22;5412;59.450;18.124;2023-01-19T16:34:58;2.60;99.90
10722;DHT22;5412;59.450;18.124;2023-01-19T16:37:23;2.50;99.90
10722;DHT22;5412;59.450;18.124;2023-01-19T16:39:50;2.60;99.90
10722;DHT22;5412;59.450;18.124;2023-01-19T16:42:16;2.50;99.90
10722;DHT22;5412;59.450;18.124;2023-01-19T16:44:42;2.60;99.90
10722;DHT22;5412;59.450;18.124;2023-01-19T16:47:08;2.60;99.90
10722;DHT22;5412;59.450;18.124;2023-01-19T16:49:33;2.50;99.90
10722;DHT22;5412;59.450;18.124;2023-01-19T16:52:00;2.60;99.90
10722;DHT22;5412;59.450;18.124;2023-01-19T16:54:26;2.50;99.90
10722;DHT22;5412;59.450;18.124;2023-01-19T16:56:55;2.60;99.90
10722;DHT22;5412;59.450;18.124;2023-01-19T16:59:22;2.60;99.90
10722;DHT22;5412;59.450;18.124;2023-01-19T17:01:49;2.60;99.90
10722;DHT22;5412;59.450;18.124;2023-01-19T17:04:17;2.60;99.90
10722;DHT22;5412;59.450;18.124;2023-01-19T17:06:43;2.50;99.90
10722;DHT22;5412;59.450;18.124;2023-01-19T17:09:11;2.50;99.90
10722;DHT22;5412;59.450;18.124;2023-01-19T17:11:38;2.50;99.90
10722;DHT22;5412;59.450;18.124;2023-01-19T17:14:11;2.50;99.90